sensor_id;sensor_type;location;lat;lon;timestamp;pressure;altitude;pressure_sealevel;temperature;humidity
22649;BME280;11491;41.942;24.220;2023-01-29T00:00:03;89669.44;;;-0.46;82.33
22649;BME280;11491;41.942;24.220;2023-01-29T00:02:34;89683.59;;;-0.42;81.54
22649;BME280;11491;41.942;24.220;2023-01-29T00:05:06;89671.00;;;-0.45;81.93
22649;BME280;11491;41.942;24.220;2023-01-29T00:07:33;89682.66;;;-0.51;81.20
22649;BME280;11491;41.942;24.220;2023-01-29T00:09:59;89686.03;;;-0.51;81.09
22649;BME280;11491;41.942;24.220;2023-01-29T00:12:26;89676.94;;;-0.58;81.09
22649;BME280;11491;41.942;24.220;2023-01-29T00:14:53;89679.66;;;-0.63;80.65
22649;BME280;11491;41.942;24.220;2023-01-29T00:17:20;89681.44;;;-0.83;81.17
22649;BME280;11491;41.942;24.220;2023-01-29T00:19:47;89689.50;;;-0.98;82.56
22649;BME280;11491;41.942;24.220;2023-01-29T00:22:15;89681.09;;;-1.00;82.53
22649;BME280;11491;41.942;24.220;2023-01-29T00:24:41;89686.91;;;-1.03;83.47
22649;BME280;11491;41.942;24.220;2023-01-29T00:27:08;89693.28;;;-1.10;83.51
22649;BME280;11491;41.942;24.220;2023-01-29T00:29:35;89690.56;;;-0.99;83.98
22649;BME280;11491;41.942;24.220;2023-01-29T00:32:02;89697.47;;;-1.09;84.05
22649;BME280;11491;41.942;24.220;2023-01-29T00:34:29;89688.97;;;-1.00;84.19
22649;BME280;11491;41.942;24.220;2023-01-29T00:36:56;89684.25;;;-0.98;84.71
22649;BME280;11491;41.942;24.220;2023-01-29T00:39:30;89685.78;;;-0.97;84.64
22649;BME280;11491;41.942;24.220;2023-01-29T00:42:04;89686.25;;;-0.90;84.29
22649;BME280;11491;41.942;24.220;2023-01-29T00:44:48;89691.50;;;-0.90;84.14
22649;BME280;11491;41.942;24.220;2023-01-29T00:47:24;89695.75;;;-0.94;84.24
22649;BME280;11491;41.942;24.220;2023-01-29T00:49:58;89694.75;;;-0.98;84.40
22649;BME280;11491;41.942;24.220;2023-01-29T00:52:25;89702.66;;;-1.03;84.81
22649;BME280;11491;41.942;24.220;2023-01-29T00:54:55;89696.06;;;-1.01;85.48
22649;BME280;11491;41.942;24.220;2023-01-29T00:57:23;89686.81;;;-0.93;85.48
22649;BME280;11491;41.942;24.220;2023-01-29T00:59:51;89695.75;;;-0.94;85.77
22649;BME280;11491;41.942;24.220;2023-01-29T01:02:18;89698.31;;;-0.89;85.79
22649;BME280;11491;41.942;24.220;2023-01-29T01:05:04;89693.28;;;-0.85;86.29
22649;BME280;11491;41.942;24.220;2023-01-29T01:07:32;89693.53;;;-0.82;85.98
22649;BME280;11491;41.942;24.220;2023-01-29T01:10:00;89693.41;;;-0.96;86.48
22649;BME280;11491;41.942;24.220;2023-01-29T01:12:44;89698.91;;;-0.97;87.55
22649;BME280;11491;41.942;24.220;2023-01-29T01:15:11;89698.84;;;-0.92;87.41
22649;BME280;11491;41.942;24.220;2023-01-29T01:17:38;89700.72;;;-0.93;87.72
22649;BME280;11491;41.942;24.220;2023-01-29T01:20:05;89700.00;;;-0.98;87.51
22649;BME280;11491;41.942;24.220;2023-01-29T01:22:32;89699.44;;;-0.95;87.90
22649;BME280;11491;41.942;24.220;2023-01-29T01:25:01;89699.44;;;-0.95;87.66
22649;BME280;11491;41.942;24.220;2023-01-29T01:27:28;89698.84;;;-0.92;88.19
22649;BME280;11491;41.942;24.220;2023-01-29T01:29:54;89698.81;;;-0.87;87.73
22649;BME280;11491;41.942;24.220;2023-01-29T01:32:21;89703.00;;;-0.86;87.97
22649;BME280;11491;41.942;24.220;2023-01-29T01:34:48;89701.44;;;-0.87;87.83
22649;BME280;11491;41.942;24.220;2023-01-29T01:37:15;89702.44;;;-0.83;87.91
22649;BME280;11491;41.942;24.220;2023-01-29T01:39:41;89703.00;;;-0.86;88.15
22649;BME280;11491;41.942;24.220;2023-01-29T01:42:14;89698.47;;;-1.04;88.01
22649;BME280;11491;41.942;24.220;2023-01-29T01:44:53;89705.81;;;-1.01;87.92
22649;BME280;11491;41.942;24.220;2023-01-29T01:47:25;89703.69;;;-0.99;87.86
22649;BME280;11491;41.942;24.220;2023-01-29T01:49:54;89710.03;;;-1.05;88.17
22649;BME280;11491;41.942;24.220;2023-01-29T01:52:23;89703.00;;;-1.10;88.60
22649;BME280;11491;41.942;24.220;2023-01-29T01:54:50;89706.34;;;-1.04;89.13
22649;BME280;11491;41.942;24.220;2023-01-29T01:57:20;89706.78;;;-0.97;88.61
22649;BME280;11491;41.942;24.220;2023-01-29T01:59:55;89700.44;;;-0.91;88.53
22649;BME280;11491;41.942;24.220;2023-01-29T02:02:23;89708.81;;;-0.89;87.61
22649;BME280;11491;41.942;24.220;2023-01-29T02:05:10;89703.91;;;-0.96;87.19
22649;BME280;11491;41.942;24.220;2023-01-29T02:07:57;89705.56;;;-1.05;87.77
22649;BME280;11491;41.942;24.220;2023-01-29T02:10:45;89703.00;;;-1.10;87.65
22649;BME280;11491;41.942;24.220;2023-01-29T02:13:15;89704.44;;;-1.23;88.25
22649;BME280;11491;41.942;24.220;2023-01-29T02:15:43;89714.38;;;-1.20;88.49
22649;BME280;11491;41.942;24.220;2023-01-29T02:18:11;89706.72;;;-1.16;88.39
22649;BME280;11491;41.942;24.220;2023-01-29T02:20:41;89711.59;;;-1.04;88.15
22649;BME280;11491;41.942;24.220;2023-01-29T02:29:12;89706.34;;;-1.04;87.67
22649;BME280;11491;41.942;24.220;2023-01-29T02:32:10;89723.56;;;-0.93;87.27
22649;BME280;11491;41.942;24.220;2023-01-29T02:34:47;89724.13;;;-0.96;86.98
22649;BME280;11491;41.942;24.220;2023-01-29T02:37:38;89724.56;;;-0.89;86.93
22649;BME280;11491;41.942;24.220;2023-01-29T02:40:14;89726.38;;;-0.84;86.91
22649;BME280;11491;41.942;24.220;2023-01-29T02:42:49;89722.88;;;-0.80;86.82
22649;BME280;11491;41.942;24.220;2023-01-29T02:45:25;89728.75;;;-0.88;86.86
22649;BME280;11491;41.942;24.220;2023-01-29T02:47:56;89729.25;;;-0.86;87.31
22649;BME280;11491;41.942;24.220;2023-01-29T02:50:30;89721.91;;;-0.84;87.41
22649;BME280;11491;41.942;24.220;2023-01-29T02:53:01;89725.19;;;-0.73;87.40
22649;BME280;11491;41.942;24.220;2023-01-29T02:55:34;89732.78;;;-0.72;87.12
22649;BME280;11491;41.942;24.220;2023-01-29T02:58:08;89730.59;;;-0.64;86.80
22649;BME280;11491;41.942;24.220;2023-01-29T03:00:40;89735.25;;;-0.56;86.40
22649;BME280;11491;41.942;24.220;2023-01-29T03:03:15;89726.78;;;-0.53;85.72
22649;BME280;11491;41.942;24.220;2023-01-29T03:05:48;89725.25;;;-0.54;85.47
22649;BME280;11491;41.942;24.220;2023-01-29T03:08:33;89731.84;;;-0.57;85.27
22649;BME280;11491;41.942;24.220;2023-01-29T03:11:11;89737.88;;;-0.56;85.26
22649;BME280;11491;41.942;24.220;2023-01-29T03:13:44;89739.97;;;-0.58;85.48
22649;BME280;11491;41.942;24.220;2023-01-29T03:16:20;89738.53;;;-0.70;86.51
22649;BME280;11491;41.942;24.220;2023-01-29T03:18:52;89734.84;;;-0.69;85.72
22649;BME280;11491;41.942;24.220;2023-01-29T03:21:24;89743.22;;;-0.67;86.00
22649;BME280;11491;41.942;24.220;2023-01-29T03:24:12;89737.94;;;-0.61;85.84
22649;BME280;11491;41.942;24.220;2023-01-29T03:27:01;89739.22;;;-0.59;85.42
22649;BME280;11491;41.942;24.220;2023-01-29T03:29:48;89744.59;;;-0.50;86.02
22649;BME280;11491;41.942;24.220;2023-01-29T03:32:35;89744.91;;;-0.52;85.97
22649;BME280;11491;41.942;24.220;2023-01-29T03:35:07;89738.63;;;-0.56;85.90
22649;BME280;11491;41.942;24.220;2023-01-29T03:37:38;89743.88;;;-0.56;85.62
22649;BME280;11491;41.942;24.220;2023-01-29T03:40:08;89741.97;;;-0.50;85.19
22649;BME280;11491;41.942;24.220;2023-01-29T03:42:48;89749.31;;;-0.47;85.12
22649;BME280;11491;41.942;24.220;2023-01-29T03:45:21;89750.94;;;-0.51;85.26
22649;BME280;11491;41.942;24.220;2023-01-29T03:48:00;89751.63;;;-0.64;85.63
22649;BME280;11491;41.942;24.220;2023-01-29T03:50:34;89757.22;;;-0.52;85.32
22649;BME280;11491;41.942;24.220;2023-01-29T03:53:07;89761.44;;;-0.51;84.79
22649;BME280;11491;41.942;24.220;2023-01-29T03:55:42;89762.22;;;-0.51;85.44
22649;BME280;11491;41.942;24.220;2023-01-29T03:58:19;89758.25;;;-0.48;85.64
22649;BME280;11491;41.942;24.220;2023-01-29T04:00:53;89753.50;;;-0.46;85.08
22649;BME280;11491;41.942;24.220;2023-01-29T04:03:27;89762.47;;;-0.47;84.60
22649;BME280;11491;41.942;24.220;2023-01-29T04:06:02;89765.13;;;-0.52;84.59
22649;BME280;11491;41.942;24.220;2023-01-29T04:08:37;89749.59;;;-0.49;84.74
22649;BME280;11491;41.942;24.220;2023-01-29T04:11:09;89752.84;;;-0.57;84.61
22649;BME280;11491;41.942;24.220;2023-01-29T04:13:37;89761.13;;;-0.45;84.06
22649;BME280;11491;41.942;24.220;2023-01-29T04:16:08;89756.31;;;-0.61;84.11
22649;BME280;11491;41.942;24.220;2023-01-29T04:18:40;89772.53;;;-0.54;84.55
22649;BME280;11491;41.942;24.220;2023-01-29T04:21:10;89769.38;;;-0.56;85.50
22649;BME280;11491;41.942;24.220;2023-01-29T04:23:36;89772.97;;;-0.47;84.94
22649;BME280;11491;41.942;24.220;2023-01-29T04:26:24;89771.38;;;-0.48;85.12
22649;BME280;11491;41.942;24.220;2023-01-29T04:31:54;89775.84;;;-0.49;85.27
22649;BME280;11491;41.942;24.220;2023-01-29T04:34:32;89778.22;;;-0.47;85.58
22649;BME280;11491;41.942;24.220;2023-01-29T04:37:08;89777.66;;;-0.44;85.04
22649;BME280;11491;41.942;24.220;2023-01-29T04:39:43;89779.31;;;-0.53;85.23
22649;BME280;11491;41.942;24.220;2023-01-29T04:42:19;89782.47;;;-0.51;86.13
22649;BME280;11491;41.942;24.220;2023-01-29T04:44:55;89698.97;;;-1.02;85.28
22649;BME280;11491;41.942;24.220;2023-01-29T04:47:30;89788.94;;;-0.44;85.58
22649;BME280;11491;41.942;24.220;2023-01-29T04:50:10;89797.91;;;-0.45;85.57
22649;BME280;11491;41.942;24.220;2023-01-29T04:52:44;89798.78;;;-0.54;85.32
22649;BME280;11491;41.942;24.220;2023-01-29T04:55:18;89797.66;;;-0.48;85.06
22649;BME280;11491;41.942;24.220;2023-01-29T04:57:49;89799.72;;;-0.45;85.69
22649;BME280;11491;41.942;24.220;2023-01-29T05:00:21;89803.41;;;-0.46;85.72
22649;BME280;11491;41.942;24.220;2023-01-29T05:02:50;89805.25;;;-0.47;85.19
22649;BME280;11491;41.942;24.220;2023-01-29T05:05:20;89788.81;;;-0.57;85.65
22649;BME280;11491;41.942;24.220;2023-01-29T05:07:47;89800.84;;;-0.51;85.96
22649;BME280;11491;41.942;24.220;2023-01-29T05:10:17;89807.84;;;-0.41;84.83
22649;BME280;11491;41.942;24.220;2023-01-29T05:12:48;89799.44;;;-0.44;84.60
22649;BME280;11491;41.942;24.220;2023-01-29T05:15:19;89808.28;;;-0.34;83.51
22649;BME280;11491;41.942;24.220;2023-01-29T05:17:48;89815.09;;;-0.33;83.72
22649;BME280;11491;41.942;24.220;2023-01-29T05:20:15;89817.00;;;-0.39;84.50
22649;BME280;11491;41.942;24.220;2023-01-29T05:22:44;89819.69;;;-0.44;84.29
22649;BME280;11491;41.942;24.220;2023-01-29T05:25:20;89821.84;;;-0.51;84.78
22649;BME280;11491;41.942;24.220;2023-01-29T05:27:48;89817.63;;;-0.47;84.97
22649;BME280;11491;41.942;24.220;2023-01-29T05:30:35;89826.50;;;-0.43;85.38
22649;BME280;11491;41.942;24.220;2023-01-29T05:33:04;89822.81;;;-0.42;85.19
22649;BME280;11491;41.942;24.220;2023-01-29T05:35:31;89824.25;;;-0.31;84.61
22649;BME280;11491;41.942;24.220;2023-01-29T05:37:59;89827.41;;;-0.29;84.38
22649;BME280;11491;41.942;24.220;2023-01-29T05:40:26;89812.84;;;-0.45;84.19
22649;BME280;11491;41.942;24.220;2023-01-29T05:42:53;89833.75;;;-0.35;83.66
22649;BME280;11491;41.942;24.220;2023-01-29T05:45:20;89824.94;;;-0.44;83.41
22649;BME280;11491;41.942;24.220;2023-01-29T05:47:46;89836.88;;;-0.33;83.16
22649;BME280;11491;41.942;24.220;2023-01-29T05:50:14;89842.03;;;-0.23;82.35
22649;BME280;11491;41.942;24.220;2023-01-29T05:52:41;89843.03;;;-0.18;81.81
22649;BME280;11491;41.942;24.220;2023-01-29T05:55:10;89838.94;;;-0.25;82.04
22649;BME280;11491;41.942;24.220;2023-01-29T05:57:38;89841.44;;;-0.14;81.83
22649;BME280;11491;41.942;24.220;2023-01-29T06:00:06;89841.94;;;-0.12;81.72
22649;BME280;11491;41.942;24.220;2023-01-29T06:02:33;89843.09;;;-0.24;81.31
22649;BME280;11491;41.942;24.220;2023-01-29T06:04:59;89841.78;;;-0.50;83.48
22649;BME280;11491;41.942;24.220;2023-01-29T06:07:26;89851.78;;;-0.47;84.32
22649;BME280;11491;41.942;24.220;2023-01-29T06:09:53;89851.31;;;-0.54;84.24
22649;BME280;11491;41.942;24.220;2023-01-29T06:12:21;89853.22;;;-0.65;85.28
22649;BME280;11491;41.942;24.220;2023-01-29T06:14:47;89863.47;;;-0.63;85.82
22649;BME280;11491;41.942;24.220;2023-01-29T06:17:14;89851.78;;;-0.52;85.49
22649;BME280;11491;41.942;24.220;2023-01-29T06:19:41;89864.84;;;-0.42;85.06
22649;BME280;11491;41.942;24.220;2023-01-29T06:22:08;89860.69;;;-0.48;83.91
22649;BME280;11491;41.942;24.220;2023-01-29T06:24:35;89861.34;;;-0.61;85.04
22649;BME280;11491;41.942;24.220;2023-01-29T06:27:02;89865.94;;;-0.48;84.27
22649;BME280;11491;41.942;24.220;2023-01-29T06:29:30;89868.41;;;-0.33;84.20
22649;BME280;11491;41.942;24.220;2023-01-29T06:31:57;89871.00;;;-0.28;83.07
22649;BME280;11491;41.942;24.220;2023-01-29T06:34:23;89875.38;;;-0.42;81.48
22649;BME280;11491;41.942;24.220;2023-01-29T06:36:50;89879.03;;;-0.43;80.82
22649;BME280;11491;41.942;24.220;2023-01-29T06:39:17;89879.94;;;-0.29;80.98
22649;BME280;11491;41.942;24.220;2023-01-29T06:41:43;89877.09;;;-0.08;79.72
22649;BME280;11491;41.942;24.220;2023-01-29T06:44:10;89873.38;;;-0.02;79.17
22649;BME280;11491;41.942;24.220;2023-01-29T06:46:38;89881.06;;;0.13;78.23
22649;BME280;11491;41.942;24.220;2023-01-29T06:49:05;89883.53;;;0.05;77.81
22649;BME280;11491;41.942;24.220;2023-01-29T06:51:32;89880.41;;;0.03;78.24
22649;BME280;11491;41.942;24.220;2023-01-29T06:53:59;89870.88;;;-0.17;78.40
22649;BME280;11491;41.942;24.220;2023-01-29T06:56:25;89891.53;;;-0.06;78.88
22649;BME280;11491;41.942;24.220;2023-01-29T06:58:52;89891.63;;;-0.16;78.66
22649;BME280;11491;41.942;24.220;2023-01-29T07:01:19;89894.16;;;-0.30;78.88
22649;BME280;11491;41.942;24.220;2023-01-29T07:03:49;89893.69;;;-0.37;79.86
22649;BME280;11491;41.942;24.220;2023-01-29T07:06:16;89899.63;;;-0.55;79.79
22649;BME280;11491;41.942;24.220;2023-01-29T07:08:43;89898.75;;;-0.75;80.10
22649;BME280;11491;41.942;24.220;2023-01-29T07:11:10;89907.84;;;-0.96;81.36
22649;BME280;11491;41.942;24.220;2023-01-29T07:13:36;89886.84;;;-0.96;81.10
22649;BME280;11491;41.942;24.220;2023-01-29T07:16:04;89903.09;;;-0.89;81.60
22649;BME280;11491;41.942;24.220;2023-01-29T07:18:31;89903.41;;;-1.01;81.62
22649;BME280;11491;41.942;24.220;2023-01-29T07:21:03;89897.97;;;-1.10;81.84
22649;BME280;11491;41.942;24.220;2023-01-29T07:23:30;89909.56;;;-1.16;81.46
22649;BME280;11491;41.942;24.220;2023-01-29T07:26:00;89907.59;;;-1.34;81.86
22649;BME280;11491;41.942;24.220;2023-01-29T07:28:27;89907.53;;;-1.24;82.39
22649;BME280;11491;41.942;24.220;2023-01-29T07:30:55;89918.16;;;-1.10;82.08
22649;BME280;11491;41.942;24.220;2023-01-29T07:33:22;89907.31;;;-0.93;81.92
22649;BME280;11491;41.942;24.220;2023-01-29T07:35:52;89903.47;;;-0.72;80.36
22649;BME280;11491;41.942;24.220;2023-01-29T07:38:20;89897.66;;;-0.69;79.49
22649;BME280;11491;41.942;24.220;2023-01-29T07:40:47;89907.13;;;-0.73;79.94
22649;BME280;11491;41.942;24.220;2023-01-29T07:43:14;89906.03;;;-0.67;78.71
22649;BME280;11491;41.942;24.220;2023-01-29T07:45:41;89906.97;;;-0.52;78.62
22649;BME280;11491;41.942;24.220;2023-01-29T07:48:10;89908.34;;;-0.31;78.67
22649;BME280;11491;41.942;24.220;2023-01-29T07:50:37;89907.13;;;-0.14;77.96
22649;BME280;11491;41.942;24.220;2023-01-29T07:53:04;89908.53;;;0.02;77.13
22649;BME280;11491;41.942;24.220;2023-01-29T07:55:33;89916.22;;;-0.02;76.16
22649;BME280;11491;41.942;24.220;2023-01-29T07:58:02;89906.91;;;0.06;79.46
22649;BME280;11491;41.942;24.220;2023-01-29T08:00:30;89906.13;;;0.30;78.45
22649;BME280;11491;41.942;24.220;2023-01-29T08:03:03;89912.25;;;0.44;76.00
22649;BME280;11491;41.942;24.220;2023-01-29T08:05:31;89920.22;;;0.39;75.97
22649;BME280;11491;41.942;24.220;2023-01-29T08:07:57;89916.63;;;0.30;75.20
22649;BME280;11491;41.942;24.220;2023-01-29T08:10:24;89917.88;;;0.13;76.36
22649;BME280;11491;41.942;24.220;2023-01-29T08:12:57;89922.38;;;0.13;75.85
22649;BME280;11491;41.942;24.220;2023-01-29T08:15:25;89912.28;;;-0.04;75.58
22649;BME280;11491;41.942;24.220;2023-01-29T08:17:52;89917.44;;;0.06;75.91
22649;BME280;11491;41.942;24.220;2023-01-29T08:20:20;89918.78;;;0.04;77.13
22649;BME280;11491;41.942;24.220;2023-01-29T08:22:47;89929.50;;;0.31;76.82
22649;BME280;11491;41.942;24.220;2023-01-29T08:25:15;89924.38;;;0.45;76.74
22649;BME280;11491;41.942;24.220;2023-01-29T08:27:41;89926.03;;;0.60;76.89
22649;BME280;11491;41.942;24.220;2023-01-29T08:30:11;89928.50;;;0.51;76.05
22649;BME280;11491;41.942;24.220;2023-01-29T08:32:38;89937.47;;;0.50;76.07
22649;BME280;11491;41.942;24.220;2023-01-29T08:35:05;89912.84;;;0.41;75.44
22649;BME280;11491;41.942;24.220;2023-01-29T08:37:31;89940.91;;;0.70;75.73
22649;BME280;11491;41.942;24.220;2023-01-29T08:39:58;89936.00;;;0.39;76.20
22649;BME280;11491;41.942;24.220;2023-01-29T08:42:25;89943.31;;;0.42;76.62
22649;BME280;11491;41.942;24.220;2023-01-29T08:44:52;89943.50;;;0.27;76.12
22649;BME280;11491;41.942;24.220;2023-01-29T08:47:20;89931.38;;;0.31;76.23
22649;BME280;11491;41.942;24.220;2023-01-29T08:49:46;89949.28;;;0.29;75.98
22649;BME280;11491;41.942;24.220;2023-01-29T08:52:13;89950.00;;;0.10;75.94
22649;BME280;11491;41.942;24.220;2023-01-29T08:54:40;89952.84;;;0.14;76.53
22649;BME280;11491;41.942;24.220;2023-01-29T08:57:06;89944.69;;;0.15;76.56
22649;BME280;11491;41.942;24.220;2023-01-29T08:59:33;89950.56;;;0.31;77.19
22649;BME280;11491;41.942;24.220;2023-01-29T09:02:00;89941.59;;;0.56;77.32
22649;BME280;11491;41.942;24.220;2023-01-29T09:04:28;89943.75;;;0.73;75.94
22649;BME280;11491;41.942;24.220;2023-01-29T09:06:55;89952.09;;;0.56;76.06
22649;BME280;11491;41.942;24.220;2023-01-29T09:09:22;89954.88;;;0.46;75.93
22649;BME280;11491;41.942;24.220;2023-01-29T09:11:48;89950.78;;;0.35;74.86
22649;BME280;11491;41.942;24.220;2023-01-29T09:14:15;89955.88;;;0.50;74.84
22649;BME280;11491;41.942;24.220;2023-01-29T09:16:42;89955.50;;;0.81;75.97
22649;BME280;11491;41.942;24.220;2023-01-29T09:19:09;89956.16;;;1.11;74.55
22649;BME280;11491;41.942;24.220;2023-01-29T09:21:37;89948.81;;;1.07;74.81
22649;BME280;11491;41.942;24.220;2023-01-29T09:24:04;89946.47;;;1.25;72.31
22649;BME280;11491;41.942;24.220;2023-01-29T09:26:31;89954.00;;;1.32;71.73
22649;BME280;11491;41.942;24.220;2023-01-29T09:28:58;89948.88;;;1.40;71.89
22649;BME280;11491;41.942;24.220;2023-01-29T09:31:24;89943.59;;;1.40;69.85
22649;BME280;11491;41.942;24.220;2023-01-29T09:33:51;89952.31;;;1.22;72.14
22649;BME280;11491;41.942;24.220;2023-01-29T09:36:18;89947.41;;;1.15;71.70
22649;BME280;11491;41.942;24.220;2023-01-29T09:38:46;89935.34;;;1.28;72.25
22649;BME280;11491;41.942;24.220;2023-01-29T09:41:23;89941.31;;;1.53;74.12
22649;BME280;11491;41.942;24.220;2023-01-29T09:43:57;89950.13;;;1.62;73.93
22649;BME280;11491;41.942;24.220;2023-01-29T09:46:29;89941.72;;;1.60;71.97
22649;BME280;11491;41.942;24.220;2023-01-29T09:49:05;89939.19;;;1.55;71.67
22649;BME280;11491;41.942;24.220;2023-01-29T09:51:36;89932.72;;;1.47;72.45
22649;BME280;11491;41.942;24.220;2023-01-29T09:54:13;89944.13;;;1.75;73.51
22649;BME280;11491;41.942;24.220;2023-01-29T09:56:42;89936.34;;;1.98;73.49
22649;BME280;11491;41.942;24.220;2023-01-29T09:59:12;89941.81;;;2.01;74.08
22649;BME280;11491;41.942;24.220;2023-01-29T10:01:44;89923.97;;;2.12;71.62
22649;BME280;11491;41.942;24.220;2023-01-29T10:07:33;89924.47;;;2.14;73.72
22649;BME280;11491;41.942;24.220;2023-01-29T10:10:17;89924.69;;;2.31;72.27
22649;BME280;11491;41.942;24.220;2023-01-29T10:12:55;89917.63;;;2.41;72.80
22649;BME280;11491;41.942;24.220;2023-01-29T10:15:39;89917.25;;;2.47;72.35
22649;BME280;11491;41.942;24.220;2023-01-29T10:18:29;89910.38;;;2.60;70.84
22649;BME280;11491;41.942;24.220;2023-01-29T10:21:05;89917.81;;;2.30;71.66
22649;BME280;11491;41.942;24.220;2023-01-29T10:23:39;89913.31;;;2.17;73.23
22649;BME280;11491;41.942;24.220;2023-01-29T10:26:12;89919.75;;;2.11;73.88
22649;BME280;11491;41.942;24.220;2023-01-29T10:28:41;89917.03;;;2.16;73.97
22649;BME280;11491;41.942;24.220;2023-01-29T10:31:13;89904.13;;;2.01;73.92
22649;BME280;11491;41.942;24.220;2023-01-29T10:33:46;89908.44;;;1.97;74.68
22649;BME280;11491;41.942;24.220;2023-01-29T10:36:18;89892.28;;;1.98;73.96
22649;BME280;11491;41.942;24.220;2023-01-29T10:38:47;89906.19;;;2.04;74.16
22649;BME280;11491;41.942;24.220;2023-01-29T10:41:47;89897.69;;;2.07;74.35
22649;BME280;11491;41.942;24.220;2023-01-29T10:44:26;89900.63;;;2.19;73.72
22649;BME280;11491;41.942;24.220;2023-01-29T10:50:10;89886.75;;;2.00;70.97
22649;BME280;11491;41.942;24.220;2023-01-29T10:52:52;89905.06;;;1.77;68.70
22649;BME280;11491;41.942;24.220;2023-01-29T10:55:33;89892.88;;;1.48;69.05
22649;BME280;11491;41.942;24.220;2023-01-29T10:58:12;89896.75;;;1.37;70.45
22649;BME280;11491;41.942;24.220;2023-01-29T11:00:42;89870.91;;;1.39;69.95
22649;BME280;11491;41.942;24.220;2023-01-29T11:03:14;89895.66;;;1.71;71.02
22649;BME280;11491;41.942;24.220;2023-01-29T11:05:46;89880.44;;;1.68;69.93
22649;BME280;11491;41.942;24.220;2023-01-29T11:08:19;89891.56;;;1.65;70.09
22649;BME280;11491;41.942;24.220;2023-01-29T11:10:55;89884.03;;;1.58;70.17
22649;BME280;11491;41.942;24.220;2023-01-29T11:13:30;89888.00;;;1.42;69.82
22649;BME280;11491;41.942;24.220;2023-01-29T11:15:58;89884.34;;;1.57;72.42
22649;BME280;11491;41.942;24.220;2023-01-29T11:18:25;89881.44;;;1.72;73.72
22649;BME280;11491;41.942;24.220;2023-01-29T11:20:59;89878.44;;;1.92;73.13
22649;BME280;11491;41.942;24.220;2023-01-29T11:23:29;89873.44;;;2.05;72.68
22649;BME280;11491;41.942;24.220;2023-01-29T11:25:57;89870.81;;;2.19;71.66
22649;BME280;11491;41.942;24.220;2023-01-29T11:28:36;89871.50;;;2.38;72.03
22649;BME280;11491;41.942;24.220;2023-01-29T11:31:14;89879.31;;;2.57;70.61
22649;BME280;11491;41.942;24.220;2023-01-29T11:33:41;89870.28;;;2.58;70.40
22649;BME280;11491;41.942;24.220;2023-01-29T11:36:27;89858.69;;;2.59;70.07
22649;BME280;11491;41.942;24.220;2023-01-29T11:39:17;89863.25;;;2.53;70.54
22649;BME280;11491;41.942;24.220;2023-01-29T11:41:49;89868.53;;;2.67;70.13
22649;BME280;11491;41.942;24.220;2023-01-29T11:44:39;89865.78;;;2.72;70.29
22649;BME280;11491;41.942;24.220;2023-01-29T11:47:11;89864.78;;;2.68;69.06
22649;BME280;11491;41.942;24.220;2023-01-29T11:49:43;89860.69;;;2.76;66.59
22649;BME280;11491;41.942;24.220;2023-01-29T11:52:12;89863.81;;;2.78;67.06
22649;BME280;11491;41.942;24.220;2023-01-29T11:54:44;89853.19;;;2.69;67.14
22649;BME280;11491;41.942;24.220;2023-01-29T11:57:23;89858.38;;;2.61;68.88
22649;BME280;11491;41.942;24.220;2023-01-29T11:59:54;89851.53;;;2.59;68.65
22649;BME280;11491;41.942;24.220;2023-01-29T12:02:26;89851.44;;;2.51;69.57
22649;BME280;11491;41.942;24.220;2023-01-29T12:04:57;89861.09;;;2.55;69.88
22649;BME280;11491;41.942;24.220;2023-01-29T12:07:25;89856.81;;;2.59;70.08
22649;BME280;11491;41.942;24.220;2023-01-29T12:09:54;89861.53;;;2.49;70.90
22649;BME280;11491;41.942;24.220;2023-01-29T12:12:30;89852.13;;;2.43;71.35
22649;BME280;11491;41.942;24.220;2023-01-29T12:15:20;89853.13;;;2.47;69.67
22649;BME280;11491;41.942;24.220;2023-01-29T12:18:04;89853.50;;;2.54;68.46
22649;BME280;11491;41.942;24.220;2023-01-29T12:20:36;89851.06;;;2.44;69.05
22649;BME280;11491;41.942;24.220;2023-01-29T12:23:21;89852.72;;;2.40;70.31
22649;BME280;11491;41.942;24.220;2023-01-29T12:26:00;89852.44;;;2.27;70.94
22649;BME280;11491;41.942;24.220;2023-01-29T12:28:41;89847.34;;;2.31;71.58
22649;BME280;11491;41.942;24.220;2023-01-29T12:31:20;89839.25;;;2.27;70.95
22649;BME280;11491;41.942;24.220;2023-01-29T12:33:55;89845.50;;;2.18;71.75
22649;BME280;11491;41.942;24.220;2023-01-29T12:36:27;89846.09;;;2.28;71.32
22649;BME280;11491;41.942;24.220;2023-01-29T12:38:57;89842.19;;;2.40;71.83
22649;BME280;11491;41.942;24.220;2023-01-29T12:41:29;89845.91;;;2.39;71.15
22649;BME280;11491;41.942;24.220;2023-01-29T12:44:01;89845.09;;;2.52;70.80
22649;BME280;11491;41.942;24.220;2023-01-29T12:46:33;89834.75;;;2.42;69.15
22649;BME280;11491;41.942;24.220;2023-01-29T12:49:09;89841.47;;;2.48;69.91
22649;BME280;11491;41.942;24.220;2023-01-29T12:51:36;89835.41;;;2.47;69.21
22649;BME280;11491;41.942;24.220;2023-01-29T12:54:06;89839.03;;;2.37;69.50
22649;BME280;11491;41.942;24.220;2023-01-29T12:56:37;89829.84;;;2.49;70.00
22649;BME280;11491;41.942;24.220;2023-01-29T12:59:13;89840.78;;;2.56;69.71
22649;BME280;11491;41.942;24.220;2023-01-29T13:01:48;89835.69;;;2.59;69.79
22649;BME280;11491;41.942;24.220;2023-01-29T13:04:28;89838.84;;;2.48;69.07
22649;BME280;11491;41.942;24.220;2023-01-29T13:07:02;89811.59;;;2.39;70.09
22649;BME280;11491;41.942;24.220;2023-01-29T13:09:34;89839.59;;;2.62;69.46
22649;BME280;11491;41.942;24.220;2023-01-29T13:12:06;89833.34;;;2.58;70.34
22649;BME280;11491;41.942;24.220;2023-01-29T13:14:43;89837.06;;;2.57;69.86
22649;BME280;11491;41.942;24.220;2023-01-29T13:17:18;89845.69;;;2.49;70.21
22649;BME280;11491;41.942;24.220;2023-01-29T13:19:49;89847.63;;;2.57;69.40
22649;BME280;11491;41.942;24.220;2023-01-29T13:22:21;89846.44;;;2.63;69.33
22649;BME280;11491;41.942;24.220;2023-01-29T13:24:50;89850.44;;;2.61;69.66
22649;BME280;11491;41.942;24.220;2023-01-29T13:27:23;89846.44;;;2.63;69.44
22649;BME280;11491;41.942;24.220;2023-01-29T13:29:50;89851.25;;;2.33;70.15
22649;BME280;11491;41.942;24.220;2023-01-29T13:32:26;89847.88;;;2.19;69.00